Amherst, Colorado
Current Conditions -  °F | °C
As of 3:15 AM on Sunday 26 Oct 2014 (Local Time) from KHEQ Reporting Station
Clear Clear  
Wind Chill: 38°   Ceiling: Unl
Heat Index: 41°   Visibility: 10mi
Dew Point: 37°   Wind: 5mph
Humidity: 87%   Direction: 280°W
Pressure: 29.83"   Gusts: NA
Location:  40.68°N, 102.17°W
Report Text: KHEQ 260915Z AUTO 28004KT 10SM CLR 05/03 A2983 RMK AO2
Loading
Personal Weather Stations






























Interactive Weather Map
Tropical Storm Tracking
New forecast layout! Learn more

10-Day Weather Forecast

Advertisements
Track Severe Weather on mobile